Aleksin, Russia
Current Conditions -  °F | °C
As of 10:00 AM on Friday 31 Oct 2014 (Local Time) from UUMO Reporting Station
Haze Haze  
Wind Chill: 32°   Ceiling: 4000
Heat Index: 36°   Visibility: 3mi
Dew Point: 25°   Wind: 4mph
Humidity: 65%   Direction: 320°NW
Pressure: 30.06"   Gusts: NA
Location:  54.52°N, 37.09°E
Report Text: UUMO 310700Z 32002MPS 5000 BR BKN040 02/M04 Q1018 NOSIG RMKQFE748/0998 26090060
Loading
Personal Weather Stations






























Interactive Weather Map
Tropical Storm Tracking
New forecast layout! Learn more

10-Day Weather Forecast

Advertisements
Track Severe Weather on mobile